createdAt,value
2023-02-23T00:00:50.013Z,9.80
2023-02-23T00:07:52.023Z,10.00
2023-02-23T00:14:52.153Z,9.90
2023-02-23T00:21:53.749Z,9.80
2023-02-23T00:28:55.373Z,9.80
2023-02-23T00:35:55.692Z,9.80
2023-02-23T00:42:56.268Z,9.80
2023-02-23T00:49:57.801Z,9.80
2023-02-23T00:56:59.650Z,9.80
2023-02-23T01:04:01.612Z,9.80
2023-02-23T01:11:10.607Z,9.80
2023-02-23T01:18:15.957Z,9.70
2023-02-23T01:25:17.869Z,9.70
2023-02-23T01:32:18.219Z,9.70
2023-02-23T01:39:20.482Z,9.80
2023-02-23T01:46:21.185Z,9.70
2023-02-23T01:53:22.458Z,9.80
2023-02-23T02:00:26.069Z,9.60
2023-02-23T02:07:29.129Z,9.70
2023-02-23T02:14:31.666Z,9.70
2023-02-23T02:22:14.288Z,9.70
2023-02-23T02:30:13.810Z,9.70
2023-02-23T02:37:20.974Z,9.50
2023-02-23T02:44:42.850Z,9.50
2023-02-23T02:51:53.051Z,9.40
2023-02-23T02:58:53.837Z,9.50
2023-02-23T03:06:13.751Z,9.40
2023-02-23T03:13:53.644Z,9.40
2023-02-23T03:21:24.107Z,9.30
2023-02-23T03:28:54.171Z,9.40
2023-02-23T03:36:27.065Z,9.40
2023-02-23T03:43:52.674Z,9.40
2023-02-23T03:51:14.641Z,9.30
2023-02-23T03:58:38.341Z,9.20
2023-02-23T04:06:00.361Z,9.10
2023-02-23T04:13:15.300Z,9.00
2023-02-23T04:20:16.047Z,9.00
2023-02-23T04:27:16.979Z,9.00
2023-02-23T04:34:17.061Z,9.00
2023-02-23T04:41:18.044Z,9.00
2023-02-23T04:48:18.849Z,9.00
2023-02-23T04:55:22.439Z,9.00
2023-02-23T05:02:22.574Z,9.00
2023-02-23T05:09:22.983Z,8.90
2023-02-23T05:16:23.856Z,8.90
2023-02-23T05:23:24.359Z,8.80
2023-02-23T05:30:24.846Z,8.80
2023-02-23T05:37:25.668Z,8.80
2023-02-23T05:44:26.327Z,8.70
2023-02-23T05:51:30.004Z,8.60
2023-02-23T05:58:30.448Z,8.70
2023-02-23T06:05:31.296Z,8.70
2023-02-23T06:12:31.503Z,8.70
2023-02-23T06:19:32.892Z,8.70
2023-02-23T06:26:34.028Z,8.70
2023-02-23T06:33:34.182Z,8.70
2023-02-23T06:40:34.677Z,8.70
2023-02-23T06:47:35.000Z,8.70
2023-02-23T06:54:35.689Z,8.80
2023-02-23T07:01:35.744Z,8.80
2023-02-23T07:08:36.051Z,8.80
2023-02-23T07:15:37.014Z,8.90
2023-02-23T07:22:39.076Z,9.00
2023-02-23T07:29:40.288Z,9.00
2023-02-23T07:36:40.887Z,8.90
2023-02-23T07:43:42.032Z,8.80
2023-02-23T07:50:42.718Z,8.80
2023-02-23T07:57:43.151Z,8.70
2023-02-23T08:04:43.700Z,8.60
2023-02-23T08:11:45.018Z,8.60
2023-02-23T08:18:46.114Z,8.60
2023-02-23T08:25:46.658Z,8.60
2023-02-23T08:32:47.614Z,8.60
2023-02-23T08:39:47.724Z,8.70
2023-02-23T08:46:48.062Z,8.70
2023-02-23T08:53:48.342Z,8.80
2023-02-23T09:00:48.797Z,8.80
2023-02-23T09:07:49.353Z,8.70
2023-02-23T09:14:50.951Z,8.70
2023-02-23T09:21:51.090Z,8.70
2023-02-23T09:28:51.668Z,8.70
2023-02-23T09:35:52.266Z,8.70
2023-02-23T09:43:00.222Z,8.80
2023-02-23T09:50:06.008Z,8.80
2023-02-23T09:57:14.418Z,8.90
2023-02-23T10:04:22.883Z,8.90
2023-02-23T10:11:45.767Z,9.00
2023-02-23T10:19:06.272Z,9.00
2023-02-23T10:26:08.754Z,9.00
2023-02-23T10:33:19.872Z,9.00
2023-02-23T10:40:26.335Z,9.00
2023-02-23T10:47:31.071Z,9.00
2023-02-23T10:54:43.008Z,9.10
2023-02-23T11:02:01.555Z,9.10
2023-02-23T11:09:44.490Z,9.20
2023-02-23T11:16:46.753Z,9.20
2023-02-23T11:23:51.126Z,9.20
2023-02-23T11:30:51.661Z,9.20
2023-02-23T11:37:52.406Z,9.20
2023-02-23T11:45:16.512Z,9.10
2023-02-23T11:52:21.334Z,9.10
2023-02-23T11:59:32.133Z,9.00
2023-02-23T12:06:39.413Z,9.00
2023-02-23T12:13:42.110Z,9.00
2023-02-23T12:20:48.344Z,8.90
2023-02-23T12:28:18.157Z,8.80
2023-02-23T12:35:24.815Z,8.80
2023-02-23T12:42:37.927Z,8.80
2023-02-23T12:49:45.059Z,8.80
2023-02-23T12:57:05.701Z,8.80
2023-02-23T13:04:36.359Z,8.80
2023-02-23T13:12:21.293Z,8.70
2023-02-23T13:19:38.671Z,8.60
2023-02-23T13:27:05.130Z,8.60
2023-02-23T13:34:10.097Z,8.50
2023-02-23T13:41:45.664Z,8.50
2023-02-23T13:49:04.605Z,8.50
2023-02-23T13:56:08.289Z,8.50
2023-02-23T14:03:23.092Z,8.60
2023-02-23T14:10:52.789Z,8.70
2023-02-23T14:17:57.050Z,8.70
2023-02-23T14:25:34.493Z,8.80
2023-02-23T14:32:48.585Z,8.90
2023-02-23T14:39:50.554Z,8.90
2023-02-23T14:47:04.307Z,8.90
2023-02-23T14:54:33.589Z,9.00
2023-02-23T15:01:36.857Z,9.00
2023-02-23T15:08:44.595Z,9.00
2023-02-23T15:15:46.409Z,8.90
2023-02-23T15:22:51.824Z,8.90
2023-02-23T15:29:52.885Z,8.90
2023-02-23T15:36:58.210Z,9.00
2023-02-23T15:44:29.514Z,9.00
2023-02-23T15:51:37.836Z,8.90
2023-02-23T15:58:55.939Z,8.90
2023-02-23T16:06:00.291Z,8.80
2023-02-23T16:13:01.177Z,8.80
2023-02-23T16:20:22.848Z,8.70
2023-02-23T16:27:24.712Z,8.60
2023-02-23T16:34:34.117Z,8.60
2023-02-23T16:41:35.065Z,8.50
2023-02-23T16:48:35.441Z,8.40
2023-02-23T16:55:39.772Z,8.40
2023-02-23T17:02:39.967Z,8.40
2023-02-23T17:18:28.573Z,8.40
2023-02-23T17:25:29.042Z,8.40
2023-02-23T17:32:29.865Z,8.40
2023-02-23T17:39:30.662Z,8.40
2023-02-23T17:46:31.626Z,8.40
2023-02-23T17:53:32.647Z,8.40
2023-02-23T18:00:37.651Z,8.30
2023-02-23T18:07:38.931Z,8.30
2023-02-23T18:14:39.102Z,8.40
2023-02-23T18:21:41.477Z,8.30
2023-02-23T18:28:44.340Z,8.30
2023-02-23T18:35:47.611Z,8.30
2023-02-23T18:42:48.388Z,8.20
2023-02-23T18:49:48.971Z,8.10
2023-02-23T18:56:49.597Z,8.10
2023-02-23T19:03:51.547Z,8.10
2023-02-23T19:10:52.213Z,8.10
2023-02-23T19:17:54.265Z,8.10
2023-02-23T19:24:54.353Z,8.00
2023-02-23T19:31:55.023Z,7.90
2023-02-23T19:39:10.084Z,7.90
2023-02-23T19:46:16.990Z,7.90
2023-02-23T19:53:17.413Z,7.80
2023-02-23T20:00:19.170Z,7.80
2023-02-23T20:07:19.544Z,7.80
2023-02-23T20:14:20.000Z,7.80
2023-02-23T20:21:23.410Z,7.80
2023-02-23T20:28:24.351Z,7.70
2023-02-23T20:35:26.138Z,7.70
2023-02-23T20:42:28.460Z,7.70
2023-02-23T20:49:29.583Z,7.70
2023-02-23T20:56:32.580Z,7.70
2023-02-23T21:03:34.542Z,7.70
2023-02-23T21:10:39.668Z,7.60
2023-02-23T21:17:40.448Z,7.60
2023-02-23T21:24:41.082Z,7.50
2023-02-23T21:31:43.334Z,7.40
2023-02-23T21:38:44.678Z,7.40
2023-02-23T21:45:46.611Z,7.40
2023-02-23T21:52:48.750Z,7.40
2023-02-23T21:59:49.507Z,7.40
2023-02-23T22:06:49.634Z,7.30
2023-02-23T22:13:54.316Z,7.40
2023-02-23T22:20:59.551Z,7.40
2023-02-23T22:27:59.739Z,7.30
2023-02-23T22:35:01.366Z,7.40
2023-02-23T22:42:09.064Z,7.40
2023-02-23T22:49:10.962Z,7.40
2023-02-23T22:56:11.516Z,7.40
2023-02-23T23:03:12.206Z,7.30
2023-02-23T23:10:13.771Z,7.20
2023-02-23T23:17:16.324Z,7.20
2023-02-23T23:24:17.870Z,7.10
2023-02-23T23:31:27.817Z,7.10
2023-02-23T23:38:28.412Z,7.00
2023-02-23T23:45:30.523Z,6.90
2023-02-23T23:52:35.185Z,6.70
2023-02-23T23:59:35.725Z,6.70
